Sutton, Massachusetts
Current Conditions -  °F | °C
As of 6:54 PM on Sunday 25 Jan 2015 (Local Time) from KORH Reporting Station
Clear Clear  
Wind Chill: 10°   Ceiling: Unl
Heat Index: 21°   Visibility: 10mi
Dew Point:   Wind: 10mph
Humidity: 50%   Direction: 300°WNW
Pressure: 29.84"   Gusts: NA
Location:  42.15°N, 71.76°W
Report Text: KORH 252354Z 30009KT 10SM CLR M06/M15 A2984 RMK AO2 SLP121 T10611150 11011 21061 53043
Loading
Personal Weather Stations






























Interactive Weather Map New forecast layout! Learn more

10-Day Weather Forecast

Advertisements
Track Severe Weather on mobile